sensor_id;sensor_type;location;lat;lon;timestamp;P1;durP1;ratioP1;P2;durP2;ratioP2
9424;SDS011;17139;52.140;11.636;2023-07-22T00:01:24;1.65;;;1.55;;
9424;SDS011;17139;52.140;11.636;2023-07-22T00:03:51;1.55;;;1.55;;
9424;SDS011;17139;52.140;11.636;2023-07-22T00:06:18;2.05;;;1.90;;
9424;SDS011;17139;52.140;11.636;2023-07-22T00:08:45;2.05;;;1.95;;
9424;SDS011;17139;52.140;11.636;2023-07-22T00:11:14;1.50;;;1.50;;
9424;SDS011;17139;52.140;11.636;2023-07-22T00:13:41;2.20;;;2.10;;
9424;SDS011;17139;52.140;11.636;2023-07-22T00:16:09;1.83;;;1.83;;
9424;SDS011;17139;52.140;11.636;2023-07-22T00:18:36;2.00;;;2.00;;
9424;SDS011;17139;52.140;11.636;2023-07-22T00:21:03;1.95;;;1.85;;
9424;SDS011;17139;52.140;11.636;2023-07-22T00:23:31;1.58;;;1.58;;
9424;SDS011;17139;52.140;11.636;2023-07-22T00:25:58;2.00;;;1.90;;
9424;SDS011;17139;52.140;11.636;2023-07-22T00:28:29;1.70;;;1.70;;
9424;SDS011;17139;52.140;11.636;2023-07-22T00:30:58;2.10;;;2.00;;
9424;SDS011;17139;52.140;11.636;2023-07-22T00:33:28;3.40;;;1.95;;
9424;SDS011;17139;52.140;11.636;2023-07-22T00:35:55;2.28;;;2.17;;
9424;SDS011;17139;52.140;11.636;2023-07-22T00:38:22;2.13;;;2.03;;
9424;SDS011;17139;52.140;11.636;2023-07-22T00:40:49;2.40;;;2.30;;
9424;SDS011;17139;52.140;11.636;2023-07-22T00:43:16;2.78;;;2.60;;
9424;SDS011;17139;52.140;11.636;2023-07-22T00:45:45;2.78;;;2.40;;
9424;SDS011;17139;52.140;11.636;2023-07-22T00:48:12;1.98;;;1.98;;
9424;SDS011;17139;52.140;11.636;2023-07-22T00:50:40;2.60;;;2.50;;
9424;SDS011;17139;52.140;11.636;2023-07-22T00:53:07;2.42;;;2.30;;
9424;SDS011;17139;52.140;11.636;2023-07-22T00:55:34;4.78;;;2.47;;
9424;SDS011;17139;52.140;11.636;2023-07-22T00:58:05;2.83;;;2.72;;
9424;SDS011;17139;52.140;11.636;2023-07-22T01:00:32;2.75;;;2.63;;
9424;SDS011;17139;52.140;11.636;2023-07-22T01:03:00;2.97;;;2.78;;
9424;SDS011;17139;52.140;11.636;2023-07-22T01:05:27;2.67;;;2.58;;
9424;SDS011;17139;52.140;11.636;2023-07-22T01:07:55;2.83;;;2.72;;
9424;SDS011;17139;52.140;11.636;2023-07-22T01:10:22;4.05;;;3.85;;
9424;SDS011;17139;52.140;11.636;2023-07-22T01:12:49;2.83;;;2.72;;
9424;SDS011;17139;52.140;11.636;2023-07-22T01:15:16;3.03;;;2.83;;
9424;SDS011;17139;52.140;11.636;2023-07-22T01:17:43;2.90;;;2.80;;
9424;SDS011;17139;52.140;11.636;2023-07-22T01:20:12;3.15;;;2.95;;
9424;SDS011;17139;52.140;11.636;2023-07-22T01:22:40;2.88;;;2.78;;
9424;SDS011;17139;52.140;11.636;2023-07-22T01:25:10;5.53;;;3.35;;
9424;SDS011;17139;52.140;11.636;2023-07-22T01:27:37;2.70;;;2.60;;
9424;SDS011;17139;52.140;11.636;2023-07-22T01:30:05;2.83;;;2.63;;
9424;SDS011;17139;52.140;11.636;2023-07-22T01:32:34;3.60;;;3.40;;
9424;SDS011;17139;52.140;11.636;2023-07-22T01:35:01;3.63;;;3.22;;
9424;SDS011;17139;52.140;11.636;2023-07-22T01:37:29;3.92;;;2.63;;
9424;SDS011;17139;52.140;11.636;2023-07-22T01:39:56;3.37;;;3.20;;
9424;SDS011;17139;52.140;11.636;2023-07-22T01:42:25;3.03;;;2.92;;
9424;SDS011;17139;52.140;11.636;2023-07-22T01:44:52;5.22;;;3.33;;
9424;SDS011;17139;52.140;11.636;2023-07-22T01:47:20;2.53;;;2.42;;
9424;SDS011;17139;52.140;11.636;2023-07-22T01:49:49;2.90;;;2.80;;
9424;SDS011;17139;52.140;11.636;2023-07-22T01:52:18;3.20;;;3.00;;
9424;SDS011;17139;52.140;11.636;2023-07-22T01:54:45;2.90;;;2.80;;
9424;SDS011;17139;52.140;11.636;2023-07-22T01:57:12;2.90;;;2.80;;
9424;SDS011;17139;52.140;11.636;2023-07-22T01:59:41;3.17;;;2.97;;
9424;SDS011;17139;52.140;11.636;2023-07-22T02:02:08;3.40;;;3.20;;
9424;SDS011;17139;52.140;11.636;2023-07-22T02:04:35;3.15;;;3.05;;
9424;SDS011;17139;52.140;11.636;2023-07-22T02:07:02;3.22;;;3.13;;
9424;SDS011;17139;52.140;11.636;2023-07-22T02:09:29;3.85;;;3.60;;
9424;SDS011;17139;52.140;11.636;2023-07-22T02:11:57;3.10;;;2.90;;
9424;SDS011;17139;52.140;11.636;2023-07-22T02:14:24;2.45;;;2.30;;
9424;SDS011;17139;52.140;11.636;2023-07-22T02:16:53;3.17;;;2.97;;
9424;SDS011;17139;52.140;11.636;2023-07-22T02:19:20;3.13;;;2.92;;
9424;SDS011;17139;52.140;11.636;2023-07-22T02:21:47;4.03;;;3.50;;
9424;SDS011;17139;52.140;11.636;2023-07-22T02:24:14;3.20;;;2.92;;
9424;SDS011;17139;52.140;11.636;2023-07-22T02:26:41;2.97;;;2.75;;
9424;SDS011;17139;52.140;11.636;2023-07-22T02:29:08;3.45;;;3.25;;
9424;SDS011;17139;52.140;11.636;2023-07-22T02:31:37;3.90;;;3.70;;
9424;SDS011;17139;52.140;11.636;2023-07-22T02:34:06;3.53;;;3.33;;
9424;SDS011;17139;52.140;11.636;2023-07-22T02:36:33;3.83;;;3.63;;
9424;SDS011;17139;52.140;11.636;2023-07-22T02:39:00;4.00;;;3.80;;
9424;SDS011;17139;52.140;11.636;2023-07-22T02:41:28;3.88;;;3.67;;
9424;SDS011;17139;52.140;11.636;2023-07-22T02:43:55;3.50;;;3.30;;
9424;SDS011;17139;52.140;11.636;2023-07-22T02:46:22;3.85;;;3.70;;
9424;SDS011;17139;52.140;11.636;2023-07-22T02:48:50;4.47;;;3.50;;
9424;SDS011;17139;52.140;11.636;2023-07-22T02:51:18;5.13;;;3.63;;
9424;SDS011;17139;52.140;11.636;2023-07-22T02:53:46;3.70;;;3.50;;
9424;SDS011;17139;52.140;11.636;2023-07-22T02:56:13;3.63;;;3.42;;
9424;SDS011;17139;52.140;11.636;2023-07-22T02:58:40;3.90;;;3.70;;
9424;SDS011;17139;52.140;11.636;2023-07-22T03:01:08;4.65;;;4.35;;
9424;SDS011;17139;52.140;11.636;2023-07-22T03:03:36;4.55;;;3.50;;
9424;SDS011;17139;52.140;11.636;2023-07-22T03:06:05;4.78;;;4.47;;
9424;SDS011;17139;52.140;11.636;2023-07-22T03:08:35;5.65;;;5.35;;
9424;SDS011;17139;52.140;11.636;2023-07-22T03:11:02;4.55;;;4.25;;
9424;SDS011;17139;52.140;11.636;2023-07-22T03:13:29;4.70;;;4.40;;
9424;SDS011;17139;52.140;11.636;2023-07-22T03:15:59;5.03;;;4.65;;
9424;SDS011;17139;52.140;11.636;2023-07-22T03:18:26;4.15;;;3.95;;
9424;SDS011;17139;52.140;11.636;2023-07-22T03:20:53;4.53;;;4.13;;
9424;SDS011;17139;52.140;11.636;2023-07-22T03:23:20;4.32;;;4.13;;
9424;SDS011;17139;52.140;11.636;2023-07-22T03:25:48;5.82;;;5.13;;
9424;SDS011;17139;52.140;11.636;2023-07-22T03:28:16;5.30;;;5.03;;
9424;SDS011;17139;52.140;11.636;2023-07-22T03:30:43;5.57;;;5.20;;
9424;SDS011;17139;52.140;11.636;2023-07-22T03:33:10;5.20;;;4.90;;
9424;SDS011;17139;52.140;11.636;2023-07-22T03:35:37;6.57;;;5.97;;
9424;SDS011;17139;52.140;11.636;2023-07-22T03:38:04;6.70;;;6.30;;
9424;SDS011;17139;52.140;11.636;2023-07-22T03:40:31;5.32;;;4.93;;
9424;SDS011;17139;52.140;11.636;2023-07-22T03:42:59;6.15;;;5.68;;
9424;SDS011;17139;52.140;11.636;2023-07-22T03:45:27;5.22;;;4.90;;
9424;SDS011;17139;52.140;11.636;2023-07-22T03:47:55;5.80;;;5.30;;
9424;SDS011;17139;52.140;11.636;2023-07-22T03:50:24;4.97;;;4.55;;
9424;SDS011;17139;52.140;11.636;2023-07-22T03:52:51;5.50;;;5.10;;
9424;SDS011;17139;52.140;11.636;2023-07-22T03:55:18;5.07;;;4.68;;
9424;SDS011;17139;52.140;11.636;2023-07-22T03:57:45;5.05;;;4.75;;
9424;SDS011;17139;52.140;11.636;2023-07-22T04:00:14;5.67;;;5.27;;
9424;SDS011;17139;52.140;11.636;2023-07-22T04:02:41;5.57;;;5.10;;
9424;SDS011;17139;52.140;11.636;2023-07-22T04:05:09;6.72;;;5.43;;
9424;SDS011;17139;52.140;11.636;2023-07-22T04:07:36;6.60;;;6.20;;
9424;SDS011;17139;52.140;11.636;2023-07-22T04:10:04;7.15;;;5.18;;
9424;SDS011;17139;52.140;11.636;2023-07-22T04:12:31;5.68;;;5.47;;
9424;SDS011;17139;52.140;11.636;2023-07-22T04:14:58;5.20;;;4.88;;
9424;SDS011;17139;52.140;11.636;2023-07-22T04:17:27;5.28;;;4.95;;
9424;SDS011;17139;52.140;11.636;2023-07-22T04:19:54;5.13;;;4.82;;
9424;SDS011;17139;52.140;11.636;2023-07-22T04:22:21;6.63;;;5.15;;
9424;SDS011;17139;52.140;11.636;2023-07-22T04:24:48;5.28;;;4.75;;
9424;SDS011;17139;52.140;11.636;2023-07-22T04:27:15;5.13;;;4.82;;
9424;SDS011;17139;52.140;11.636;2023-07-22T04:29:43;5.70;;;5.00;;
9424;SDS011;17139;52.140;11.636;2023-07-22T04:32:10;4.85;;;4.60;;
9424;SDS011;17139;52.140;11.636;2023-07-22T04:34:38;4.78;;;4.47;;
9424;SDS011;17139;52.140;11.636;2023-07-22T04:37:05;5.57;;;5.28;;
9424;SDS011;17139;52.140;11.636;2023-07-22T04:39:32;5.05;;;4.75;;
9424;SDS011;17139;52.140;11.636;2023-07-22T04:42:00;6.82;;;4.65;;
9424;SDS011;17139;52.140;11.636;2023-07-22T04:44:27;4.68;;;4.38;;
9424;SDS011;17139;52.140;11.636;2023-07-22T04:46:54;5.13;;;4.93;;
9424;SDS011;17139;52.140;11.636;2023-07-22T04:49:21;5.07;;;4.68;;
9424;SDS011;17139;52.140;11.636;2023-07-22T04:51:49;3.97;;;3.78;;
9424;SDS011;17139;52.140;11.636;2023-07-22T04:54:16;7.40;;;4.78;;
9424;SDS011;17139;52.140;11.636;2023-07-22T04:56:43;5.10;;;4.70;;
9424;SDS011;17139;52.140;11.636;2023-07-22T04:59:10;4.68;;;4.45;;
9424;SDS011;17139;52.140;11.636;2023-07-22T05:01:39;4.57;;;4.35;;
9424;SDS011;17139;52.140;11.636;2023-07-22T05:04:06;5.20;;;4.88;;
9424;SDS011;17139;52.140;11.636;2023-07-22T05:06:33;5.43;;;4.93;;
9424;SDS011;17139;52.140;11.636;2023-07-22T05:09:02;4.40;;;4.18;;
9424;SDS011;17139;52.140;11.636;2023-07-22T05:11:29;4.30;;;4.03;;
9424;SDS011;17139;52.140;11.636;2023-07-22T05:13:57;5.93;;;4.38;;
9424;SDS011;17139;52.140;11.636;2023-07-22T05:16:24;4.93;;;4.60;;
9424;SDS011;17139;52.140;11.636;2023-07-22T05:18:51;4.53;;;4.25;;
9424;SDS011;17139;52.140;11.636;2023-07-22T05:21:18;4.40;;;4.10;;
9424;SDS011;17139;52.140;11.636;2023-07-22T05:23:44;5.80;;;4.47;;
9424;SDS011;17139;52.140;11.636;2023-07-22T05:26:13;4.80;;;4.40;;
9424;SDS011;17139;52.140;11.636;2023-07-22T05:28:40;4.00;;;3.80;;
9424;SDS011;17139;52.140;11.636;2023-07-22T05:31:07;5.22;;;4.85;;
9424;SDS011;17139;52.140;11.636;2023-07-22T05:33:34;5.30;;;5.00;;
9424;SDS011;17139;52.140;11.636;2023-07-22T05:36:02;4.13;;;3.92;;
9424;SDS011;17139;52.140;11.636;2023-07-22T05:38:29;4.50;;;3.97;;
9424;SDS011;17139;52.140;11.636;2023-07-22T05:40:57;4.47;;;4.18;;
9424;SDS011;17139;52.140;11.636;2023-07-22T05:43:26;4.72;;;4.32;;
9424;SDS011;17139;52.140;11.636;2023-07-22T05:45:53;5.40;;;4.18;;
9424;SDS011;17139;52.140;11.636;2023-07-22T05:48:20;4.40;;;4.20;;
9424;SDS011;17139;52.140;11.636;2023-07-22T05:50:47;4.65;;;4.45;;
9424;SDS011;17139;52.140;11.636;2023-07-22T05:53:14;4.22;;;3.83;;
9424;SDS011;17139;52.140;11.636;2023-07-22T05:55:41;3.83;;;3.40;;
9424;SDS011;17139;52.140;11.636;2023-07-22T05:58:14;4.30;;;3.83;;
9424;SDS011;17139;52.140;11.636;2023-07-22T06:00:43;3.80;;;3.60;;
9424;SDS011;17139;52.140;11.636;2023-07-22T06:03:11;4.82;;;4.53;;
9424;SDS011;17139;52.140;11.636;2023-07-22T06:05:38;4.45;;;4.25;;
9424;SDS011;17139;52.140;11.636;2023-07-22T06:08:05;4.95;;;4.55;;
9424;SDS011;17139;52.140;11.636;2023-07-22T06:10:32;4.20;;;4.00;;
9424;SDS011;17139;52.140;11.636;2023-07-22T06:13:03;4.60;;;4.25;;
9424;SDS011;17139;52.140;11.636;2023-07-22T06:15:30;5.00;;;4.80;;
9424;SDS011;17139;52.140;11.636;2023-07-22T06:17:58;3.45;;;3.25;;
9424;SDS011;17139;52.140;11.636;2023-07-22T06:20:26;4.15;;;3.85;;
9424;SDS011;17139;52.140;11.636;2023-07-22T06:22:53;4.10;;;3.80;;
9424;SDS011;17139;52.140;11.636;2023-07-22T06:25:20;3.80;;;3.60;;
9424;SDS011;17139;52.140;11.636;2023-07-22T06:27:48;4.50;;;4.10;;
9424;SDS011;17139;52.140;11.636;2023-07-22T06:30:14;4.50;;;4.20;;
9424;SDS011;17139;52.140;11.636;2023-07-22T06:32:42;4.22;;;3.97;;
9424;SDS011;17139;52.140;11.636;2023-07-22T06:35:10;4.25;;;4.05;;
9424;SDS011;17139;52.140;11.636;2023-07-22T06:37:37;4.68;;;4.28;;
9424;SDS011;17139;52.140;11.636;2023-07-22T06:40:05;4.03;;;3.72;;
9424;SDS011;17139;52.140;11.636;2023-07-22T06:42:33;4.22;;;4.07;;
9424;SDS011;17139;52.140;11.636;2023-07-22T06:45:00;4.50;;;3.90;;
9424;SDS011;17139;52.140;11.636;2023-07-22T06:47:27;4.07;;;3.50;;
9424;SDS011;17139;52.140;11.636;2023-07-22T06:49:54;3.47;;;3.17;;
9424;SDS011;17139;52.140;11.636;2023-07-22T06:52:23;3.55;;;3.22;;
9424;SDS011;17139;52.140;11.636;2023-07-22T06:54:50;4.13;;;3.92;;
9424;SDS011;17139;52.140;11.636;2023-07-22T06:57:17;3.80;;;3.53;;
9424;SDS011;17139;52.140;11.636;2023-07-22T06:59:44;3.83;;;3.60;;
9424;SDS011;17139;52.140;11.636;2023-07-22T07:02:11;4.53;;;4.13;;
9424;SDS011;17139;52.140;11.636;2023-07-22T07:04:38;4.10;;;3.90;;
9424;SDS011;17139;52.140;11.636;2023-07-22T07:07:05;4.80;;;4.38;;
9424;SDS011;17139;52.140;11.636;2023-07-22T07:09:34;3.65;;;3.35;;
9424;SDS011;17139;52.140;11.636;2023-07-22T07:12:01;3.45;;;3.35;;
9424;SDS011;17139;52.140;11.636;2023-07-22T07:14:29;3.78;;;3.45;;
9424;SDS011;17139;52.140;11.636;2023-07-22T07:16:56;3.85;;;3.53;;
9424;SDS011;17139;52.140;11.636;2023-07-22T07:19:23;3.42;;;3.22;;
9424;SDS011;17139;52.140;11.636;2023-07-22T07:21:50;3.60;;;3.40;;
9424;SDS011;17139;52.140;11.636;2023-07-22T07:24:17;3.30;;;3.03;;
9424;SDS011;17139;52.140;11.636;2023-07-22T07:26:45;3.63;;;3.33;;
9424;SDS011;17139;52.140;11.636;2023-07-22T07:29:13;4.13;;;3.72;;
9424;SDS011;17139;52.140;11.636;2023-07-22T07:31:40;3.28;;;3.17;;
9424;SDS011;17139;52.140;11.636;2023-07-22T07:34:06;4.35;;;3.28;;
9424;SDS011;17139;52.140;11.636;2023-07-22T07:36:34;4.95;;;3.30;;
9424;SDS011;17139;52.140;11.636;2023-07-22T07:39:01;3.13;;;2.92;;
9424;SDS011;17139;52.140;11.636;2023-07-22T07:41:28;4.72;;;3.55;;
9424;SDS011;17139;52.140;11.636;2023-07-22T07:43:56;3.67;;;3.30;;
9424;SDS011;17139;52.140;11.636;2023-07-22T07:46:24;3.47;;;3.33;;
9424;SDS011;17139;52.140;11.636;2023-07-22T07:48:53;3.40;;;3.30;;
9424;SDS011;17139;52.140;11.636;2023-07-22T07:51:22;2.90;;;2.80;;
9424;SDS011;17139;52.140;11.636;2023-07-22T07:53:52;3.63;;;3.40;;
9424;SDS011;17139;52.140;11.636;2023-07-22T07:56:19;3.88;;;3.33;;
9424;SDS011;17139;52.140;11.636;2023-07-22T07:58:47;3.92;;;3.72;;
9424;SDS011;17139;52.140;11.636;2023-07-22T08:01:16;3.05;;;2.85;;
9424;SDS011;17139;52.140;11.636;2023-07-22T08:03:44;4.18;;;3.88;;
9424;SDS011;17139;52.140;11.636;2023-07-22T08:06:11;4.05;;;3.85;;
9424;SDS011;17139;52.140;11.636;2023-07-22T08:08:39;3.47;;;3.28;;
9424;SDS011;17139;52.140;11.636;2023-07-22T08:11:07;4.20;;;3.42;;
9424;SDS011;17139;52.140;11.636;2023-07-22T08:13:36;3.08;;;2.97;;
9424;SDS011;17139;52.140;11.636;2023-07-22T08:16:04;4.07;;;3.78;;
9424;SDS011;17139;52.140;11.636;2023-07-22T08:18:34;3.33;;;3.13;;
9424;SDS011;17139;52.140;11.636;2023-07-22T08:21:02;3.97;;;3.65;;
9424;SDS011;17139;52.140;11.636;2023-07-22T08:23:30;3.92;;;3.72;;
9424;SDS011;17139;52.140;11.636;2023-07-22T08:25:57;3.58;;;3.40;;
9424;SDS011;17139;52.140;11.636;2023-07-22T08:28:24;3.20;;;3.10;;
9424;SDS011;17139;52.140;11.636;2023-07-22T08:30:53;3.53;;;3.33;;
9424;SDS011;17139;52.140;11.636;2023-07-22T08:33:21;3.90;;;3.60;;
9424;SDS011;17139;52.140;11.636;2023-07-22T08:35:50;4.00;;;3.80;;
9424;SDS011;17139;52.140;11.636;2023-07-22T08:38:17;3.70;;;3.50;;
9424;SDS011;17139;52.140;11.636;2023-07-22T08:40:47;3.53;;;3.33;;
9424;SDS011;17139;52.140;11.636;2023-07-22T08:43:15;5.03;;;3.55;;
9424;SDS011;17139;52.140;11.636;2023-07-22T08:45:46;3.25;;;2.95;;
9424;SDS011;17139;52.140;11.636;2023-07-22T08:48:15;3.33;;;3.13;;
9424;SDS011;17139;52.140;11.636;2023-07-22T08:50:44;7.38;;;2.80;;
9424;SDS011;17139;52.140;11.636;2023-07-22T08:53:16;3.05;;;2.85;;
9424;SDS011;17139;52.140;11.636;2023-07-22T08:55:45;6.85;;;2.85;;
9424;SDS011;17139;52.140;11.636;2023-07-22T08:58:13;3.15;;;2.95;;
9424;SDS011;17139;52.140;11.636;2023-07-22T09:00:40;3.30;;;3.00;;
9424;SDS011;17139;52.140;11.636;2023-07-22T09:03:07;2.83;;;2.63;;
9424;SDS011;17139;52.140;11.636;2023-07-22T09:05:36;3.37;;;3.07;;
9424;SDS011;17139;52.140;11.636;2023-07-22T09:08:04;3.30;;;2.90;;
9424;SDS011;17139;52.140;11.636;2023-07-22T09:10:34;3.00;;;2.90;;
9424;SDS011;17139;52.140;11.636;2023-07-22T09:13:02;3.90;;;3.15;;
9424;SDS011;17139;52.140;11.636;2023-07-22T09:15:29;3.08;;;2.97;;
9424;SDS011;17139;52.140;11.636;2023-07-22T09:18:01;5.95;;;2.97;;
9424;SDS011;17139;52.140;11.636;2023-07-22T09:20:28;3.28;;;3.15;;
9424;SDS011;17139;52.140;11.636;2023-07-22T09:22:55;3.60;;;2.90;;
9424;SDS011;17139;52.140;11.636;2023-07-22T09:25:23;4.05;;;2.92;;
9424;SDS011;17139;52.140;11.636;2023-07-22T09:27:52;2.97;;;2.88;;
9424;SDS011;17139;52.140;11.636;2023-07-22T09:30:24;3.50;;;3.30;;
9424;SDS011;17139;52.140;11.636;2023-07-22T09:32:52;5.38;;;2.95;;
9424;SDS011;17139;52.140;11.636;2023-07-22T09:35:21;3.40;;;3.20;;
9424;SDS011;17139;52.140;11.636;2023-07-22T09:37:49;3.43;;;3.23;;
9424;SDS011;17139;52.140;11.636;2023-07-22T09:40:17;3.72;;;3.53;;
9424;SDS011;17139;52.140;11.636;2023-07-22T09:42:45;3.13;;;2.92;;
9424;SDS011;17139;52.140;11.636;2023-07-22T09:45:14;3.38;;;3.17;;
9424;SDS011;17139;52.140;11.636;2023-07-22T09:47:42;3.47;;;3.30;;
9424;SDS011;17139;52.140;11.636;2023-07-22T09:50:10;2.95;;;2.85;;
9424;SDS011;17139;52.140;11.636;2023-07-22T09:52:42;3.13;;;3.00;;
9424;SDS011;17139;52.140;11.636;2023-07-22T09:55:11;3.67;;;3.42;;
9424;SDS011;17139;52.140;11.636;2023-07-22T09:57:40;3.22;;;3.03;;
9424;SDS011;17139;52.140;11.636;2023-07-22T10:00:11;3.55;;;3.35;;
9424;SDS011;17139;52.140;11.636;2023-07-22T10:02:41;3.60;;;3.40;;
9424;SDS011;17139;52.140;11.636;2023-07-22T10:05:12;3.88;;;3.60;;
9424;SDS011;17139;52.140;11.636;2023-07-22T10:07:45;4.32;;;4.13;;
9424;SDS011;17139;52.140;11.636;2023-07-22T10:10:13;3.50;;;3.40;;
9424;SDS011;17139;52.140;11.636;2023-07-22T10:12:42;3.47;;;3.33;;
9424;SDS011;17139;52.140;11.636;2023-07-22T10:15:10;3.45;;;3.35;;
9424;SDS011;17139;52.140;11.636;2023-07-22T10:17:38;3.78;;;3.58;;
9424;SDS011;17139;52.140;11.636;2023-07-22T10:20:08;5.22;;;3.80;;
9424;SDS011;17139;52.140;11.636;2023-07-22T10:22:40;4.18;;;3.88;;
9424;SDS011;17139;52.140;11.636;2023-07-22T10:25:10;3.72;;;3.53;;
9424;SDS011;17139;52.140;11.636;2023-07-22T10:27:38;4.50;;;4.30;;
9424;SDS011;17139;52.140;11.636;2023-07-22T10:30:06;4.07;;;3.88;;
9424;SDS011;17139;52.140;11.636;2023-07-22T10:32:34;3.75;;;3.55;;
9424;SDS011;17139;52.140;11.636;2023-07-22T10:35:05;3.38;;;3.28;;
9424;SDS011;17139;52.140;11.636;2023-07-22T10:37:35;3.83;;;3.67;;
9424;SDS011;17139;52.140;11.636;2023-07-22T10:42:52;4.03;;;3.72;;
9424;SDS011;17139;52.140;11.636;2023-07-22T10:45:25;3.63;;;3.50;;
9424;SDS011;17139;52.140;11.636;2023-07-22T10:48:00;3.75;;;3.55;;
9424;SDS011;17139;52.140;11.636;2023-07-22T10:50:39;4.40;;;4.10;;
9424;SDS011;17139;52.140;11.636;2023-07-22T10:53:09;4.28;;;4.00;;
9424;SDS011;17139;52.140;11.636;2023-07-22T10:58:30;4.68;;;4.47;;
9424;SDS011;17139;52.140;11.636;2023-07-22T11:01:10;5.50;;;5.00;;
9424;SDS011;17139;52.140;11.636;2023-07-22T11:06:38;5.00;;;4.60;;
9424;SDS011;17139;52.140;11.636;2023-07-22T11:09:38;4.35;;;4.07;;
9424;SDS011;17139;52.140;11.636;2023-07-22T11:12:10;4.47;;;4.25;;
9424;SDS011;17139;52.140;11.636;2023-07-22T11:14:45;4.57;;;4.25;;
9424;SDS011;17139;52.140;11.636;2023-07-22T11:17:14;4.40;;;4.20;;
9424;SDS011;17139;52.140;11.636;2023-07-22T11:19:42;3.65;;;3.45;;
9424;SDS011;17139;52.140;11.636;2023-07-22T11:22:11;4.00;;;3.80;;
9424;SDS011;17139;52.140;11.636;2023-07-22T11:24:39;4.07;;;3.65;;
9424;SDS011;17139;52.140;11.636;2023-07-22T11:27:07;4.03;;;3.83;;
9424;SDS011;17139;52.140;11.636;2023-07-22T11:29:34;4.25;;;4.05;;
9424;SDS011;17139;52.140;11.636;2023-07-22T11:32:02;4.90;;;3.50;;
9424;SDS011;17139;52.140;11.636;2023-07-22T11:34:30;4.00;;;3.80;;
9424;SDS011;17139;52.140;11.636;2023-07-22T11:36:57;3.77;;;3.57;;
9424;SDS011;17139;52.140;11.636;2023-07-22T11:39:26;3.10;;;3.00;;
9424;SDS011;17139;52.140;11.636;2023-07-22T11:41:56;3.08;;;2.97;;
9424;SDS011;17139;52.140;11.636;2023-07-22T11:44:28;2.70;;;2.60;;
9424;SDS011;17139;52.140;11.636;2023-07-22T11:46:56;4.60;;;2.85;;
9424;SDS011;17139;52.140;11.636;2023-07-22T11:49:25;3.63;;;3.42;;
9424;SDS011;17139;52.140;11.636;2023-07-22T11:51:53;5.53;;;2.78;;
9424;SDS011;17139;52.140;11.636;2023-07-22T11:54:21;3.03;;;2.83;;
9424;SDS011;17139;52.140;11.636;2023-07-22T11:56:50;3.05;;;2.85;;
9424;SDS011;17139;52.140;11.636;2023-07-22T11:59:17;2.70;;;2.60;;
9424;SDS011;17139;52.140;11.636;2023-07-22T12:01:59;4.32;;;2.47;;
9424;SDS011;17139;52.140;11.636;2023-07-22T12:04:27;2.47;;;2.38;;
9424;SDS011;17139;52.140;11.636;2023-07-22T12:06:54;2.85;;;2.50;;
9424;SDS011;17139;52.140;11.636;2023-07-22T12:09:22;2.42;;;2.33;;
9424;SDS011;17139;52.140;11.636;2023-07-22T12:11:55;2.35;;;2.17;;
9424;SDS011;17139;52.140;11.636;2023-07-22T12:14:23;2.40;;;2.10;;
9424;SDS011;17139;52.140;11.636;2023-07-22T12:16:52;2.30;;;2.20;;
9424;SDS011;17139;52.140;11.636;2023-07-22T12:19:23;2.50;;;2.38;;
9424;SDS011;17139;52.140;11.636;2023-07-22T12:21:50;2.40;;;2.30;;
9424;SDS011;17139;52.140;11.636;2023-07-22T12:24:17;2.05;;;2.05;;
9424;SDS011;17139;52.140;11.636;2023-07-22T12:26:44;2.50;;;2.40;;
9424;SDS011;17139;52.140;11.636;2023-07-22T12:29:12;2.58;;;2.47;;
9424;SDS011;17139;52.140;11.636;2023-07-22T12:31:39;2.78;;;2.67;;
9424;SDS011;17139;52.140;11.636;2023-07-22T12:34:06;2.58;;;2.47;;
9424;SDS011;17139;52.140;11.636;2023-07-22T12:36:33;2.88;;;2.78;;
9424;SDS011;17139;52.140;11.636;2023-07-22T12:39:00;2.97;;;2.78;;
9424;SDS011;17139;52.140;11.636;2023-07-22T12:41:28;3.33;;;3.03;;
9424;SDS011;17139;52.140;11.636;2023-07-22T12:43:54;4.70;;;2.90;;
9424;SDS011;17139;52.140;11.636;2023-07-22T12:46:23;2.70;;;2.60;;
9424;SDS011;17139;52.140;11.636;2023-07-22T12:48:50;2.60;;;2.40;;
9424;SDS011;17139;52.140;11.636;2023-07-22T12:51:17;2.95;;;2.75;;
9424;SDS011;17139;52.140;11.636;2023-07-22T12:53:44;2.58;;;2.47;;
9424;SDS011;17139;52.140;11.636;2023-07-22T12:56:11;4.82;;;2.88;;
9424;SDS011;17139;52.140;11.636;2023-07-22T12:58:38;3.88;;;3.03;;
9424;SDS011;17139;52.140;11.636;2023-07-22T13:01:05;3.50;;;3.30;;
9424;SDS011;17139;52.140;11.636;2023-07-22T13:03:34;2.97;;;2.88;;
9424;SDS011;17139;52.140;11.636;2023-07-22T13:06:01;3.13;;;3.03;;
9424;SDS011;17139;52.140;11.636;2023-07-22T13:08:28;3.03;;;2.92;;
9424;SDS011;17139;52.140;11.636;2023-07-22T13:10:55;3.13;;;2.88;;
9424;SDS011;17139;52.140;11.636;2023-07-22T13:13:22;3.40;;;3.30;;
9424;SDS011;17139;52.140;11.636;2023-07-22T13:15:49;3.50;;;3.30;;
9424;SDS011;17139;52.140;11.636;2023-07-22T13:18:16;3.00;;;2.90;;
9424;SDS011;17139;52.140;11.636;2023-07-22T13:20:44;3.55;;;3.25;;
9424;SDS011;17139;52.140;11.636;2023-07-22T13:23:11;3.05;;;2.92;;
9424;SDS011;17139;52.140;11.636;2023-07-22T13:25:38;3.30;;;3.10;;
9424;SDS011;17139;52.140;11.636;2023-07-22T13:28:05;3.85;;;3.65;;
9424;SDS011;17139;52.140;11.636;2023-07-22T13:30:32;3.28;;;3.17;;
9424;SDS011;17139;52.140;11.636;2023-07-22T13:32:59;4.05;;;2.92;;
9424;SDS011;17139;52.140;11.636;2023-07-22T13:35:26;3.45;;;3.35;;
9424;SDS011;17139;52.140;11.636;2023-07-22T13:37:54;3.22;;;3.13;;
9424;SDS011;17139;52.140;11.636;2023-07-22T13:40:21;3.40;;;3.20;;
9424;SDS011;17139;52.140;11.636;2023-07-22T13:42:48;2.88;;;2.78;;
9424;SDS011;17139;52.140;11.636;2023-07-22T13:45:15;3.50;;;3.20;;
9424;SDS011;17139;52.140;11.636;2023-07-22T13:47:42;4.82;;;3.60;;
9424;SDS011;17139;52.140;11.636;2023-07-22T13:50:09;3.03;;;2.92;;
9424;SDS011;17139;52.140;11.636;2023-07-22T13:52:36;3.97;;;3.78;;
9424;SDS011;17139;52.140;11.636;2023-07-22T13:55:07;5.40;;;3.22;;
9424;SDS011;17139;52.140;11.636;2023-07-22T13:57:34;3.50;;;3.40;;
9424;SDS011;17139;52.140;11.636;2023-07-22T14:00:01;5.85;;;3.20;;
9424;SDS011;17139;52.140;11.636;2023-07-22T14:02:33;4.13;;;3.60;;
9424;SDS011;17139;52.140;11.636;2023-07-22T14:05:00;3.45;;;3.20;;
9424;SDS011;17139;52.140;11.636;2023-07-22T14:07:31;3.58;;;3.47;;
9424;SDS011;17139;52.140;11.636;2023-07-22T14:09:58;3.47;;;3.28;;
9424;SDS011;17139;52.140;11.636;2023-07-22T14:12:26;3.25;;;3.15;;
9424;SDS011;17139;52.140;11.636;2023-07-22T14:14:53;3.58;;;3.33;;
9424;SDS011;17139;52.140;11.636;2023-07-22T14:17:20;3.28;;;3.08;;
9424;SDS011;17139;52.140;11.636;2023-07-22T14:19:47;2.88;;;2.67;;
9424;SDS011;17139;52.140;11.636;2023-07-22T14:22:14;4.03;;;3.00;;
9424;SDS011;17139;52.140;11.636;2023-07-22T14:24:41;3.28;;;3.17;;
9424;SDS011;17139;52.140;11.636;2023-07-22T14:27:08;3.50;;;3.30;;
9424;SDS011;17139;52.140;11.636;2023-07-22T14:29:36;5.22;;;3.53;;
9424;SDS011;17139;52.140;11.636;2023-07-22T14:32:03;3.72;;;3.53;;
9424;SDS011;17139;52.140;11.636;2023-07-22T14:34:31;3.67;;;3.47;;
9424;SDS011;17139;52.140;11.636;2023-07-22T14:36:58;3.65;;;3.45;;
9424;SDS011;17139;52.140;11.636;2023-07-22T14:39:25;3.45;;;3.33;;
9424;SDS011;17139;52.140;11.636;2023-07-22T14:41:52;3.33;;;3.22;;
9424;SDS011;17139;52.140;11.636;2023-07-22T14:44:19;4.53;;;3.58;;
9424;SDS011;17139;52.140;11.636;2023-07-22T14:46:47;3.20;;;3.10;;
9424;SDS011;17139;52.140;11.636;2023-07-22T14:49:14;3.53;;;3.15;;
9424;SDS011;17139;52.140;11.636;2023-07-22T14:51:41;3.40;;;3.15;;
9424;SDS011;17139;52.140;11.636;2023-07-22T14:54:09;3.50;;;3.30;;
9424;SDS011;17139;52.140;11.636;2023-07-22T14:56:37;3.60;;;3.50;;
9424;SDS011;17139;52.140;11.636;2023-07-22T14:59:04;3.47;;;3.38;;
9424;SDS011;17139;52.140;11.636;2023-07-22T15:01:37;3.47;;;3.38;;